createdAt,value
2023-02-19T00:01:45.025Z,6.75
2023-02-19T00:06:48.320Z,10.40
2023-02-19T00:11:53.295Z,10.07
2023-02-19T00:16:55.738Z,8.00
2023-02-19T00:21:58.310Z,6.40
2023-02-19T00:27:00.852Z,6.88
2023-02-19T00:32:06.432Z,6.75
2023-02-19T00:37:08.940Z,7.32
2023-02-19T00:42:11.601Z,6.30
2023-02-19T00:47:16.525Z,6.53
2023-02-19T00:52:19.025Z,6.68
2023-02-19T00:57:21.509Z,8.75
2023-02-19T01:02:23.994Z,8.52
2023-02-19T01:07:26.478Z,9.55
2023-02-19T01:12:29.127Z,8.97
2023-02-19T01:17:31.671Z,10.65
2023-02-19T01:22:34.164Z,12.48
2023-02-19T01:27:36.692Z,9.68
2023-02-19T01:32:39.288Z,10.48
2023-02-19T01:37:41.896Z,11.13
2023-02-19T01:42:45.182Z,13.25
2023-02-19T01:47:54.945Z,12.50
2023-02-19T01:52:57.711Z,9.52
2023-02-19T01:58:02.186Z,6.70
2023-02-19T02:10:02.945Z,6.43
2023-02-19T02:15:06.149Z,4.95
2023-02-19T02:20:26.654Z,5.82
2023-02-19T02:26:14.029Z,9.38
2023-02-19T02:31:16.597Z,8.23
2023-02-19T02:36:26.056Z,7.28
2023-02-19T02:42:31.024Z,6.80
2023-02-19T02:47:46.998Z,7.75
2023-02-19T02:53:11.604Z,9.55
2023-02-19T02:58:16.473Z,6.87
2023-02-19T03:03:26.572Z,8.20
2023-02-19T03:08:42.676Z,5.75
2023-02-19T03:14:03.881Z,7.25
2023-02-19T03:19:20.069Z,9.05
2023-02-19T03:24:57.862Z,6.60
2023-02-19T03:30:08.838Z,7.55
2023-02-19T03:35:28.249Z,10.43
2023-02-19T03:40:37.448Z,10.02
2023-02-19T03:46:02.864Z,9.65
2023-02-19T03:51:28.669Z,8.67
2023-02-19T03:56:52.744Z,11.93
2023-02-19T04:02:12.472Z,8.30
2023-02-19T04:07:18.887Z,9.70
2023-02-19T04:12:23.611Z,10.98
2023-02-19T04:17:39.126Z,11.93
2023-02-19T04:22:42.213Z,9.82
2023-02-19T04:27:46.523Z,9.73
2023-02-19T04:32:49.051Z,9.13
2023-02-19T04:37:51.674Z,6.35
2023-02-19T04:42:54.234Z,8.20
2023-02-19T04:47:59.236Z,6.10
2023-02-19T04:53:01.708Z,8.40
2023-02-19T04:58:06.465Z,4.88
2023-02-19T05:03:08.844Z,8.40
2023-02-19T05:08:11.369Z,8.67
2023-02-19T05:13:13.983Z,8.80
2023-02-19T05:18:16.900Z,10.60
2023-02-19T05:23:20.854Z,9.93
2023-02-19T05:28:28.881Z,10.25
2023-02-19T05:33:31.346Z,11.13
2023-02-19T05:38:33.862Z,11.85
2023-02-19T05:43:37.721Z,12.60
2023-02-19T05:48:40.193Z,10.98
2023-02-19T05:53:43.730Z,12.63
2023-02-19T05:58:46.267Z,12.73
2023-02-19T06:03:48.834Z,12.57
2023-02-19T06:08:51.470Z,12.15
2023-02-19T06:13:53.990Z,15.37
2023-02-19T06:18:56.533Z,17.70
2023-02-19T06:23:59.849Z,16.63
2023-02-19T06:29:02.542Z,19.90
2023-02-19T06:34:06.264Z,16.02
2023-02-19T06:39:09.989Z,20.53
2023-02-19T06:44:12.475Z,19.70
2023-02-19T06:49:15.700Z,21.33
2023-02-19T06:54:18.336Z,23.13
2023-02-19T06:59:21.059Z,21.65
2023-02-19T07:04:26.245Z,18.10
2023-02-19T07:09:28.916Z,16.50
2023-02-19T07:14:31.709Z,11.88
2023-02-19T07:19:34.268Z,17.37
2023-02-19T07:24:37.706Z,14.00
2023-02-19T07:29:40.278Z,14.25
2023-02-19T07:34:42.859Z,13.38
2023-02-19T07:39:45.313Z,12.85
2023-02-19T07:44:47.808Z,11.87
2023-02-19T07:49:50.430Z,12.43
2023-02-19T07:54:53.035Z,11.55
2023-02-19T07:59:55.610Z,14.43
2023-02-19T08:04:58.294Z,15.32
2023-02-19T08:10:19.346Z,14.00
2023-02-19T08:15:22.550Z,13.15
2023-02-19T08:20:25.160Z,17.45
2023-02-19T08:25:27.738Z,12.77
2023-02-19T08:30:31.891Z,10.77
2023-02-19T08:35:38.508Z,16.80
2023-02-19T08:40:41.466Z,16.15
2023-02-19T08:45:45.745Z,11.65
2023-02-19T08:50:57.401Z,14.97
2023-02-19T08:56:04.459Z,13.18
2023-02-19T09:01:13.919Z,10.90
2023-02-19T09:06:22.712Z,9.90
2023-02-19T09:11:25.300Z,11.95
2023-02-19T09:16:27.816Z,9.93
2023-02-19T09:21:30.433Z,10.98
2023-02-19T09:33:19.208Z,12.13
2023-02-19T09:38:22.324Z,11.55
2023-02-19T09:43:29.296Z,8.97
2023-02-19T09:48:32.835Z,10.40
2023-02-19T09:53:44.510Z,9.00
2023-02-19T09:58:50.689Z,8.93
2023-02-19T10:04:04.695Z,7.40
2023-02-19T10:09:20.374Z,9.57
2023-02-19T10:14:39.472Z,9.63
2023-02-19T10:19:42.074Z,8.43
2023-02-19T10:24:46.043Z,7.97
2023-02-19T10:29:50.753Z,7.18
2023-02-19T10:35:14.478Z,7.10
2023-02-19T10:40:26.878Z,10.55
2023-02-19T10:45:48.407Z,8.02
2023-02-19T10:51:05.170Z,8.07
2023-02-19T10:56:10.553Z,5.50
2023-02-19T11:01:16.208Z,7.80
2023-02-19T11:06:21.997Z,7.97
2023-02-19T11:11:44.664Z,9.60
2023-02-19T11:16:49.880Z,9.98
2023-02-19T11:21:54.254Z,7.70
2023-02-19T11:26:58.716Z,9.50
2023-02-19T11:32:27.951Z,8.02
2023-02-19T11:37:30.527Z,9.13
2023-02-19T11:42:45.528Z,9.77
2023-02-19T11:48:06.387Z,9.40
2023-02-19T11:53:35.132Z,12.70
2023-02-19T11:59:20.645Z,8.50
2023-02-19T12:04:41.255Z,11.02
2023-02-19T12:09:55.621Z,11.13
2023-02-19T12:15:16.346Z,12.13
2023-02-19T12:20:41.842Z,10.90
2023-02-19T12:25:52.934Z,7.82
2023-02-19T12:31:13.922Z,13.27
2023-02-19T12:36:37.713Z,11.98
2023-02-19T12:42:15.895Z,11.13
2023-02-19T12:47:23.678Z,8.33
2023-02-19T12:52:37.048Z,14.18
2023-02-19T12:57:40.300Z,9.20
2023-02-19T13:02:42.906Z,10.77
2023-02-19T13:07:50.375Z,12.43
2023-02-19T13:12:59.722Z,10.97
2023-02-19T13:18:05.877Z,10.30
2023-02-19T13:23:38.164Z,11.20
2023-02-19T13:28:43.510Z,10.18
2023-02-19T13:33:54.770Z,12.60
2023-02-19T13:38:59.800Z,12.47
2023-02-19T13:44:05.496Z,8.85
2023-02-19T13:49:23.282Z,11.05
2023-02-19T13:54:27.354Z,12.57
2023-02-19T13:59:38.159Z,9.38
2023-02-19T14:04:50.601Z,10.37
2023-02-19T14:09:54.146Z,12.05
2023-02-19T14:14:57.684Z,8.32
2023-02-19T14:20:22.879Z,10.18
2023-02-19T14:25:31.409Z,9.50
2023-02-19T14:30:40.915Z,10.77
2023-02-19T14:35:46.639Z,13.00
2023-02-19T14:40:50.912Z,12.13
2023-02-19T14:46:34.603Z,8.43
2023-02-19T14:51:41.056Z,7.35
2023-02-19T14:56:47.954Z,7.63
2023-02-19T15:02:01.966Z,12.95
2023-02-19T15:07:08.828Z,10.63
2023-02-19T15:12:35.452Z,12.23
2023-02-19T15:17:44.055Z,12.75
2023-02-19T15:22:47.018Z,6.67
2023-02-19T15:27:51.193Z,5.75
2023-02-19T15:32:56.912Z,14.30
2023-02-19T15:38:01.253Z,8.57
2023-02-19T15:43:05.221Z,10.55
2023-02-19T15:48:22.360Z,8.60
2023-02-19T15:53:30.473Z,11.43
2023-02-19T16:04:13.368Z,8.85
2023-02-19T16:09:24.619Z,8.48
2023-02-19T16:14:35.317Z,12.83
2023-02-19T16:19:46.993Z,15.55
2023-02-19T16:24:52.807Z,14.30
2023-02-19T16:29:55.507Z,14.00
2023-02-19T16:34:58.232Z,15.40
2023-02-19T16:40:16.636Z,13.87
2023-02-19T16:45:19.415Z,16.40
2023-02-19T16:50:41.766Z,10.35
2023-02-19T16:55:44.318Z,13.70
2023-02-19T17:00:46.839Z,17.92
2023-02-19T17:05:51.023Z,14.77
2023-02-19T17:10:56.429Z,14.35
2023-02-19T17:15:59.436Z,17.17
2023-02-19T17:21:11.388Z,18.92
2023-02-19T17:26:22.970Z,15.75
2023-02-19T17:31:25.491Z,14.67
2023-02-19T17:36:31.491Z,16.08
2023-02-19T17:41:35.067Z,14.63
2023-02-19T17:46:38.613Z,22.55
2023-02-19T17:51:41.254Z,14.00
2023-02-19T17:56:46.393Z,14.33
2023-02-19T18:01:48.849Z,12.02
2023-02-19T18:06:53.801Z,15.55
2023-02-19T18:11:56.524Z,21.98
2023-02-19T18:16:59.533Z,17.02
2023-02-19T18:22:04.252Z,15.37
2023-02-19T18:27:08.018Z,16.25
2023-02-19T18:32:10.802Z,14.70
2023-02-19T18:37:13.309Z,20.23
2023-02-19T18:42:16.281Z,17.38
2023-02-19T18:47:25.658Z,18.57
2023-02-19T18:52:28.686Z,16.65
2023-02-19T18:57:32.101Z,14.35
2023-02-19T19:02:47.373Z,16.38
2023-02-19T19:07:55.810Z,16.45
2023-02-19T19:13:00.786Z,18.57
2023-02-19T19:18:03.259Z,13.60
2023-02-19T19:23:06.758Z,17.10
2023-02-19T19:28:09.447Z,19.73
2023-02-19T19:33:14.042Z,18.60
2023-02-19T19:38:17.584Z,14.83
2023-02-19T19:43:20.188Z,14.82
2023-02-19T19:48:23.849Z,13.40
2023-02-19T19:53:28.926Z,16.95
2023-02-19T19:58:31.577Z,16.55
2023-02-19T20:03:34.455Z,18.90
2023-02-19T20:08:37.062Z,14.32
2023-02-19T20:13:39.613Z,12.80
2023-02-19T20:18:42.267Z,17.67
2023-02-19T20:23:47.204Z,14.35
2023-02-19T20:28:50.789Z,17.13
2023-02-19T20:33:54.536Z,16.63
2023-02-19T20:38:57.325Z,19.00
2023-02-19T20:43:59.814Z,19.10
2023-02-19T20:49:02.302Z,16.48
2023-02-19T20:54:04.748Z,15.17
2023-02-19T20:59:08.320Z,19.30
2023-02-19T21:04:11.175Z,18.95
2023-02-19T21:09:13.977Z,15.13
2023-02-19T21:14:17.438Z,16.35
2023-02-19T21:19:21.849Z,19.60
2023-02-19T21:24:42.515Z,19.48
2023-02-19T21:29:45.807Z,24.27
2023-02-19T21:34:49.149Z,17.67
2023-02-19T21:39:51.800Z,20.38
2023-02-19T21:44:56.367Z,18.07
2023-02-19T21:49:58.832Z,17.63
2023-02-19T21:55:01.386Z,19.45
2023-02-19T22:00:05.950Z,20.10
2023-02-19T22:05:08.704Z,16.65
2023-02-19T22:10:11.336Z,24.37
2023-02-19T22:15:15.379Z,20.15
2023-02-19T22:20:19.877Z,22.95
2023-02-19T22:25:22.516Z,20.80
2023-02-19T22:30:25.071Z,17.90
2023-02-19T22:35:27.636Z,20.50
2023-02-19T22:40:30.162Z,20.92
2023-02-19T22:45:32.684Z,15.93
2023-02-19T22:50:35.842Z,24.73
2023-02-19T22:55:38.337Z,19.52
2023-02-19T23:00:40.760Z,21.23
2023-02-19T23:05:43.312Z,23.35
2023-02-19T23:10:45.842Z,21.33
2023-02-19T23:15:48.323Z,22.98
2023-02-19T23:20:51.010Z,19.83
2023-02-19T23:25:54.813Z,19.00
2023-02-19T23:30:57.512Z,20.05
2023-02-19T23:36:00.114Z,21.38
2023-02-19T23:41:09.266Z,23.17
2023-02-19T23:46:17.797Z,23.05
2023-02-19T23:51:20.275Z,21.07
2023-02-19T23:56:28.073Z,22.70
